Time;durP1;ratioP1;P1;durP2;ratioP2;P2;SDS_P1;SDS_P2;PMS_P1;PMS_P2;Temp;Humidity;BMP_temperature;BMP_pressure;BME280_temperature;BME280_humidity;BME280_pressure;Samples;Min_cycle;Max_cycle;Signal;HPM_P1;HPM_P2
2022/10/10 00:02:10;;;;;;;15.20;5.68;;;;;;;;;;5016629;28;20045;-71
2022/10/10 00:04:36;;;;;;;12.80;5.32;;;;;;;;;;4998603;28;20053;-71
2022/10/10 00:07:03;;;;;;;14.73;5.40;;;;;;;;;;5016067;28;20053;-71
2022/10/10 00:09:29;;;;;;;;;;;;;;;;;;5016209;28;20050;-71
2022/10/10 00:11:55;;;;;;;16.30;5.82;;;;;;;;;;4997694;28;19921;-71
2022/10/10 00:14:21;;;;;;;14.10;5.72;;;;;;;;;;5015635;28;20049;-71
2022/10/10 00:16:47;;;;;;;12.23;4.90;;;;;;;;;;5015400;28;20046;-72
2022/10/10 00:19:13;;;;;;;14.60;5.97;;;;;;;;;;5015586;28;20085;-72
2022/10/10 00:21:39;;;;;;;12.60;5.70;;;;;;;;;;5014946;28;20473;-71
2022/10/10 00:24:05;;;;;;;12.35;5.60;;;;;;;;;;5015480;28;20058;-72
2022/10/10 00:26:31;;;;;;;12.38;5.75;;;;;;;;;;5015475;28;20050;-73
2022/10/10 00:28:57;;;;;;;12.52;5.95;;;;;;;;;;5015303;28;20111;-71
2022/10/10 00:31:23;;;;;;;11.90;5.55;;;;;;;;;;5015186;28;20048;-71
2022/10/10 00:33:50;;;;;;;11.15;5.30;;;;;;;;;;5015211;28;20046;-71
2022/10/10 00:36:19;;;;;;;17.33;6.10;;;;;;;;;;4998675;28;20041;-70
2022/10/10 00:38:45;;;;;;;12.20;5.65;;;;;;;;;;4998416;28;20053;-73
2022/10/10 00:41:11;;;;;;;13.75;5.40;;;;;;;;;;5015196;28;20172;-73
2022/10/10 00:43:37;;;;;;;14.02;5.28;;;;;;;;;;4997603;28;20081;-72
2022/10/10 00:46:03;;;;;;;13.80;5.20;;;;;;;;;;5014515;28;20461;-72
2022/10/10 00:48:34;;;;;;;11.32;5.45;;;;;;;;;;4997773;28;20062;-72
2022/10/10 00:51:02;;;;;;;12.13;5.32;;;;;;;;;;5014873;28;20382;-74
2022/10/10 00:53:31;;;;;;;11.75;5.57;;;;;;;;;;5014973;28;20046;-72
2022/10/10 00:55:58;;;;;;;13.63;5.20;;;;;;;;;;4997469;28;20050;-71
2022/10/10 00:58:25;;;;;;;12.95;5.68;;;;;;;;;;5014687;28;20491;-72
2022/10/10 01:00:51;;;;;;;14.02;5.78;;;;;;;;;;5014682;28;20048;-72
2022/10/10 01:03:17;;;;;;;;;;;;;;;;;;5015173;28;20477;-72
2022/10/10 01:05:44;;;;;;;13.07;5.55;;;;;;;;;;5015134;28;19928;-72
2022/10/10 01:08:11;;;;;;;10.90;5.43;;;;;;;;;;5015060;28;20046;-72
2022/10/10 01:10:55;;;;;;;16.25;5.60;;;;;;;;;;5015171;28;20046;-72
2022/10/10 01:13:28;;;;;;;12.23;5.72;;;;;;;;;;5014480;28;20142;-71
2022/10/10 01:16:04;;;;;;;11.35;5.57;;;;;;;;;;5014472;28;20190;-73
2022/10/10 01:18:33;;;;;;;14.18;5.50;;;;;;;;;;5014424;28;20495;-72
2022/10/10 01:21:03;;;;;;;16.23;5.97;;;;;;;;;;5014244;28;20050;-72
2022/10/10 01:23:35;;;;;;;12.40;6.03;;;;;;;;;;5014185;28;20553;-71
2022/10/10 01:32:49;;;;;;;13.00;5.60;;;;;;;;;;5272719;22;20098;-74
2022/10/10 01:35:18;;;;;;;14.15;5.97;;;;;;;;;;5092911;28;20048;-74
2022/10/10 01:38:04;;;;;;;13.07;5.85;;;;;;;;;;5094334;28;20431;-73
2022/10/10 01:40:30;;;;;;;12.13;5.95;;;;;;;;;;5094485;28;20488;-73
2022/10/10 01:43:02;;;;;;;11.85;5.50;;;;;;;;;;5093071;28;20070;-73
2022/10/10 01:45:30;;;;;;;14.20;6.22;;;;;;;;;;5076674;28;20062;-74
2022/10/10 01:47:58;;;;;;;15.20;6.47;;;;;;;;;;5093343;28;20056;-73
2022/10/10 01:50:26;;;;;;;13.43;6.18;;;;;;;;;;5094283;28;20048;-72
2022/10/10 01:53:00;;;;;;;14.02;6.32;;;;;;;;;;5094072;28;20036;-84
2022/10/10 01:55:32;;;;;;;12.70;6.32;;;;;;;;;;5094138;28;20052;-76
2022/10/10 01:58:04;;;;;;;12.57;6.05;;;;;;;;;;5093909;28;20048;-74
2022/10/10 02:00:34;;;;;;;13.55;6.00;;;;;;;;;;5094003;28;20109;-74
2022/10/10 02:03:09;;;;;;;14.50;6.15;;;;;;;;;;5093942;28;20044;-73
2022/10/10 02:05:51;;;;;;;12.15;6.15;;;;;;;;;;5094011;28;20138;-78
2022/10/10 02:08:21;;;;;;;12.23;5.80;;;;;;;;;;5093167;28;20079;-78
2022/10/10 02:10:55;;;;;;;16.00;6.25;;;;;;;;;;5093652;28;20050;-82
2022/10/10 02:13:23;;;;;;;13.27;5.72;;;;;;;;;;5093934;28;20044;-77
2022/10/10 02:15:52;;;;;;;11.40;5.95;;;;;;;;;;5093778;28;20052;-77
2022/10/10 02:18:19;;;;;;;12.82;6.00;;;;;;;;;;5093806;28;20044;-73
2022/10/10 02:20:47;;;;;;;11.75;6.28;;;;;;;;;;5094331;28;20047;-75
2022/10/10 02:23:14;;;;;;;15.63;6.55;;;;;;;;;;5093831;28;20459;-75
2022/10/10 02:25:41;;;;;;;11.80;5.97;;;;;;;;;;5094657;28;20051;-76
2022/10/10 02:28:07;;;;;;;13.32;6.60;;;;;;;;;;5093840;28;20044;-76
2022/10/10 02:30:35;;;;;;;12.77;6.25;;;;;;;;;;5094125;28;20044;-76
2022/10/10 02:33:03;;;;;;;15.95;6.70;;;;;;;;;;5094246;28;20506;-75
2022/10/10 02:35:32;;;;;;;16.80;6.63;;;;;;;;;;5093721;28;20094;-71
2022/10/10 02:37:59;;;;;;;13.63;7.28;;;;;;;;;;5093816;28;20048;-73
2022/10/10 02:40:28;;;;;;;14.07;6.75;;;;;;;;;;5093408;28;20055;-82
2022/10/10 02:42:55;;;;;;;12.85;6.78;;;;;;;;;;5075874;28;20048;-73
2022/10/10 02:45:21;;;;;;;13.10;7.00;;;;;;;;;;5093915;28;20048;-76
2022/10/10 02:47:47;;;;;;;;;;;;;;;;;;5099030;28;20043;-74
2022/10/10 02:50:13;;;;;;;13.65;6.90;;;;;;;;;;5097840;28;20283;-75
2022/10/10 02:52:39;;;;;;;13.38;6.90;;;;;;;;;;5097522;28;20036;-73
2022/10/10 02:55:06;;;;;;;15.80;6.90;;;;;;;;;;5098100;28;20040;-75
2022/10/10 02:57:33;;;;;;;11.95;6.60;;;;;;;;;;5097541;28;20499;-75
2022/10/10 03:00:00;;;;;;;12.32;6.93;;;;;;;;;;5097388;28;20055;-75
2022/10/10 03:02:26;;;;;;;15.25;7.18;;;;;;;;;;5098087;28;20040;-74
2022/10/10 03:04:52;;;;;;;14.57;7.45;;;;;;;;;;5096567;28;20051;-76
2022/10/10 03:07:18;;;;;;;15.57;7.13;;;;;;;;;;5097273;28;20127;-75
2022/10/10 03:09:44;;;;;;;14.65;7.10;;;;;;;;;;5097214;28;20052;-76
2022/10/10 03:12:10;;;;;;;14.82;7.15;;;;;;;;;;5097088;28;20085;-76
2022/10/10 03:14:36;;;;;;;15.30;7.25;;;;;;;;;;5097193;28;20051;-76
2022/10/10 03:17:02;;;;;;;15.38;7.07;;;;;;;;;;5096836;28;20044;-74
2022/10/10 03:19:28;;;;;;;15.75;7.32;;;;;;;;;;5096951;28;20127;-74
2022/10/10 03:21:55;;;;;;;15.65;7.45;;;;;;;;;;5095709;28;20040;-75
2022/10/10 03:24:21;;;;;;;14.23;7.07;;;;;;;;;;5097332;28;20093;-72
2022/10/10 03:26:47;;;;;;;13.48;7.30;;;;;;;;;;5097477;28;20044;-74
2022/10/10 03:29:13;;;;;;;15.23;8.02;;;;;;;;;;5096812;28;20044;-74
2022/10/10 03:31:39;;;;;;;14.98;7.30;;;;;;;;;;5096531;28;20074;-75
2022/10/10 03:34:05;;;;;;;17.33;7.40;;;;;;;;;;5096532;28;20087;-73
2022/10/10 03:36:31;;;;;;;15.30;7.50;;;;;;;;;;5096797;28;20055;-73
2022/10/10 03:38:57;;;;;;;14.40;7.32;;;;;;;;;;5095744;28;20051;-75
2022/10/10 03:41:23;;;;;;;15.88;8.02;;;;;;;;;;5096628;28;20476;-77
2022/10/10 03:43:49;;;;;;;15.90;8.07;;;;;;;;;;5096718;28;20044;-71
2022/10/10 03:46:15;;;;;;;16.05;7.80;;;;;;;;;;5096497;28;20051;-75
2022/10/10 03:48:41;;;;;;;17.88;8.40;;;;;;;;;;5097159;28;20044;-72
2022/10/10 03:51:07;;;;;;;16.17;7.80;;;;;;;;;;5096157;28;20039;-73
2022/10/10 03:53:33;;;;;;;17.58;8.20;;;;;;;;;;5096578;28;20051;-71
2022/10/10 03:55:59;;;;;;;14.48;7.65;;;;;;;;;;5095460;28;20483;-72
2022/10/10 03:58:26;;;;;;;15.45;7.47;;;;;;;;;;5096019;28;20126;-72
2022/10/10 04:00:53;;;;;;;18.63;9.05;;;;;;;;;;5096309;28;20123;-77
2022/10/10 04:03:19;;;;;;;15.80;8.60;;;;;;;;;;5096658;28;20433;-75
2022/10/10 04:05:45;;;;;;;15.63;7.97;;;;;;;;;;5096130;28;20055;-73
2022/10/10 04:08:11;;;;;;;14.88;8.52;;;;;;;;;;5096109;28;20040;-70
2022/10/10 04:10:37;;;;;;;14.52;8.57;;;;;;;;;;5095101;28;20054;-73
2022/10/10 04:13:04;;;;;;;14.40;7.72;;;;;;;;;;5095685;28;20150;-70
2022/10/10 04:15:31;;;;;;;15.43;8.40;;;;;;;;;;5096042;28;20131;-72
2022/10/10 04:17:57;;;;;;;17.05;8.55;;;;;;;;;;5096708;28;20067;-73
2022/10/10 04:20:23;;;;;;;15.95;8.20;;;;;;;;;;5096007;28;20046;-69
2022/10/10 04:22:50;;;;;;;17.00;8.48;;;;;;;;;;5096541;28;20054;-70
2022/10/10 04:25:16;;;;;;;14.82;8.48;;;;;;;;;;5095395;28;20110;-70
2022/10/10 04:27:45;;;;;;;16.85;8.55;;;;;;;;;;5077603;28;20058;-68
2022/10/10 04:30:11;;;;;;;16.48;8.85;;;;;;;;;;5095223;28;20067;-69
2022/10/10 04:32:37;;;;;;;14.85;8.48;;;;;;;;;;5095086;28;20058;-69
2022/10/10 04:35:03;;;;;;;;;;;;;;;;;;5096073;28;20362;-69
2022/10/10 04:37:29;;;;;;;15.60;8.40;;;;;;;;;;5095243;28;19930;-71
2022/10/10 04:39:55;;;;;;;14.43;8.68;;;;;;;;;;5095065;28;20095;-70
2022/10/10 04:42:21;;;;;;;16.83;8.35;;;;;;;;;;5095252;28;20040;-70
2022/10/10 04:44:47;;;;;;;14.25;8.70;;;;;;;;;;5094658;28;20044;-71
2022/10/10 04:47:13;;;;;;;19.95;9.40;;;;;;;;;;5094898;28;20080;-71
2022/10/10 04:49:42;;;;;;;16.88;8.80;;;;;;;;;;5095616;28;20048;-69
2022/10/10 04:52:09;;;;;;;15.07;8.48;;;;;;;;;;5093335;28;20044;-69
2022/10/10 04:54:35;;;;;;;18.85;9.63;;;;;;;;;;5094878;28;20086;-69
2022/10/10 04:57:01;;;;;;;16.10;8.65;;;;;;;;;;5094381;28;20472;-69
2022/10/10 04:59:27;;;;;;;18.88;9.02;;;;;;;;;;5095576;28;20044;-69
2022/10/10 05:01:53;;;;;;;17.08;9.75;;;;;;;;;;5095178;28;20043;-70
2022/10/10 05:04:19;;;;;;;19.55;9.85;;;;;;;;;;5076791;28;20067;-71
2022/10/10 05:06:46;;;;;;;19.05;9.35;;;;;;;;;;5094610;28;20105;-71
2022/10/10 05:09:12;;;;;;;15.95;8.93;;;;;;;;;;5093568;28;20044;-71
2022/10/10 05:11:38;;;;;;;17.67;9.82;;;;;;;;;;5094382;28;20058;-69
2022/10/10 05:14:04;;;;;;;16.83;9.20;;;;;;;;;;5094440;28;20063;-72
2022/10/10 05:16:30;;;;;;;16.50;9.70;;;;;;;;;;5094484;28;20131;-71
2022/10/10 05:18:56;;;;;;;17.33;9.10;;;;;;;;;;5094334;28;20096;-72
2022/10/10 05:21:22;;;;;;;;;;;;;;;;;;5094609;28;20048;-71
2022/10/10 05:23:48;;;;;;;18.70;9.65;;;;;;;;;;5093274;28;19927;-69
2022/10/10 05:26:14;;;;;;;17.75;9.07;;;;;;;;;;5092619;28;20131;-70
2022/10/10 05:28:40;;;;;;;15.65;9.32;;;;;;;;;;5094236;28;20096;-75
2022/10/10 05:31:07;;;;;;;20.60;9.70;;;;;;;;;;5093844;28;20047;-71
2022/10/10 05:33:33;;;;;;;20.25;11.05;;;;;;;;;;5093761;28;20063;-70
2022/10/10 05:35:59;;;;;;;;;;;;;;;;;;5093675;28;20052;-71
2022/10/10 05:38:25;;;;;;;16.60;9.40;;;;;;;;;;5091993;28;19931;-70
2022/10/10 05:40:53;;;;;;;17.08;9.82;;;;;;;;;;5093084;28;20540;-71
2022/10/10 05:43:19;;;;;;;20.83;9.77;;;;;;;;;;5092077;28;20114;-72
2022/10/10 05:45:45;;;;;;;17.35;9.90;;;;;;;;;;5093387;28;20132;-72
2022/10/10 05:48:11;;;;;;;17.67;10.15;;;;;;;;;;5093367;28;20418;-71
2022/10/10 05:50:40;;;;;;;20.10;9.90;;;;;;;;;;5074594;28;20399;-72
2022/10/10 05:53:06;;;;;;;19.10;10.73;;;;;;;;;;5092555;28;20123;-77
2022/10/10 05:55:34;;;;;;;17.75;9.45;;;;;;;;;;5092737;28;20440;-70
2022/10/10 05:58:00;;;;;;;19.05;10.50;;;;;;;;;;5093009;28;20094;-71
2022/10/10 06:00:26;;;;;;;17.88;9.90;;;;;;;;;;5092725;28;20055;-72
2022/10/10 06:02:52;;;;;;;16.75;9.68;;;;;;;;;;5092815;28;20479;-70
2022/10/10 06:05:18;;;;;;;15.98;9.65;;;;;;;;;;5092995;28;20040;-71
2022/10/10 06:07:44;;;;;;;18.45;10.32;;;;;;;;;;5092137;28;20261;-70
2022/10/10 06:10:10;;;;;;;19.15;9.98;;;;;;;;;;5091211;28;20070;-77
2022/10/10 06:12:36;;;;;;;20.65;10.63;;;;;;;;;;5090720;28;20135;-70
2022/10/10 06:15:02;;;;;;;17.15;9.93;;;;;;;;;;5091999;28;20059;-70
2022/10/10 06:17:28;;;;;;;19.63;10.05;;;;;;;;;;5092198;28;20484;-71
2022/10/10 06:19:54;;;;;;;21.00;10.57;;;;;;;;;;5090932;28;20545;-70
2022/10/10 06:22:20;;;;;;;17.25;9.88;;;;;;;;;;5074526;28;20039;-72
2022/10/10 06:24:47;;;;;;;18.75;9.95;;;;;;;;;;5092281;28;20083;-71
2022/10/10 06:27:13;;;;;;;18.88;10.48;;;;;;;;;;5092361;28;20113;-77
2022/10/10 06:29:39;;;;;;;17.85;10.45;;;;;;;;;;5092348;28;20044;-71
2022/10/10 06:32:05;;;;;;;57.55;38.20;;;;;;;;;;5091360;28;20060;-70
2022/10/10 06:34:31;;;;;;;21.10;10.80;;;;;;;;;;5093553;28;20105;-72
2022/10/10 06:36:57;;;;;;;20.50;10.38;;;;;;;;;;5092003;28;20083;-70
2022/10/10 06:39:23;;;;;;;19.42;11.02;;;;;;;;;;5092714;28;20044;-71
2022/10/10 06:41:49;;;;;;;17.38;10.82;;;;;;;;;;5092763;28;20046;-73
2022/10/10 06:44:18;;;;;;;21.40;10.27;;;;;;;;;;5092667;28;20488;-75
2022/10/10 06:46:44;;;;;;;18.80;10.40;;;;;;;;;;5092465;28;20040;-71
2022/10/10 06:49:10;;;;;;;17.80;10.80;;;;;;;;;;5091533;28;20048;-71
2022/10/10 06:51:41;;;;;;;16.60;10.18;;;;;;;;;;5092629;28;20092;-71
2022/10/10 06:54:07;;;;;;;19.95;10.82;;;;;;;;;;5092897;28;20048;-72
2022/10/10 06:56:33;;;;;;;18.80;10.40;;;;;;;;;;5092686;28;20044;-72
2022/10/10 06:58:59;;;;;;;19.25;10.80;;;;;;;;;;5092002;28;20059;-70
2022/10/10 07:01:26;;;;;;;20.52;10.85;;;;;;;;;;5091011;28;20492;-69
2022/10/10 07:03:52;;;;;;;18.63;10.23;;;;;;;;;;5091741;28;20040;-70
2022/10/10 07:06:18;;;;;;;21.13;10.95;;;;;;;;;;5092781;28;20051;-71
2022/10/10 07:08:44;;;;;;;21.65;11.48;;;;;;;;;;5092493;28;20044;-71
2022/10/10 07:11:10;;;;;;;18.77;11.25;;;;;;;;;;5093251;28;20398;-71
2022/10/10 07:13:37;;;;;;;17.98;10.68;;;;;;;;;;5092329;28;20073;-71
2022/10/10 07:16:04;;;;;;;17.33;10.40;;;;;;;;;;5092825;28;20051;-74
2022/10/10 07:18:30;;;;;;;19.70;11.27;;;;;;;;;;5075102;28;20087;-71
2022/10/10 07:21:00;;;;;;;18.15;10.38;;;;;;;;;;5092358;28;20079;-70
2022/10/10 07:23:27;;;;;;;19.90;11.45;;;;;;;;;;5092445;28;20121;-73
2022/10/10 07:25:59;;;;;;;19.75;11.38;;;;;;;;;;5091806;28;20044;-72
2022/10/10 07:28:25;;;;;;;19.65;11.65;;;;;;;;;;5093325;28;20449;-72
2022/10/10 07:30:58;;;;;;;18.70;11.05;;;;;;;;;;5093292;28;20036;-72
2022/10/10 07:33:24;;;;;;;20.67;11.55;;;;;;;;;;5094949;28;20060;-72
2022/10/10 07:35:53;;;;;;;20.38;11.35;;;;;;;;;;5094859;28;20058;-70
2022/10/10 07:38:20;;;;;;;21.27;11.48;;;;;;;;;;5096138;28;20094;-79
2022/10/10 07:40:46;;;;;;;20.40;11.88;;;;;;;;;;5094771;28;20376;-71
2022/10/10 07:43:12;;;;;;;18.75;10.80;;;;;;;;;;5077766;28;20117;-71
2022/10/10 07:45:38;;;;;;;20.70;11.13;;;;;;;;;;5095973;28;20044;-71
2022/10/10 07:48:05;;;;;;;20.73;11.32;;;;;;;;;;5094824;28;20050;-73
2022/10/10 07:50:31;;;;;;;19.15;11.25;;;;;;;;;;5095678;28;20387;-72
2022/10/10 07:52:57;;;;;;;19.58;11.55;;;;;;;;;;5096018;28;20456;-71
2022/10/10 07:55:23;;;;;;;21.98;12.15;;;;;;;;;;5095599;28;20079;-71
2022/10/10 07:57:50;;;;;;;21.58;12.02;;;;;;;;;;5096519;28;20048;-71
2022/10/10 08:00:15;;;;;;;;;;;;;;;;;;5095683;28;20514;-72
2022/10/10 08:02:42;;;;;;;22.73;12.02;;;;;;;;;;5094906;28;19972;-76
2022/10/10 08:05:08;;;;;;;17.92;11.40;;;;;;;;;;5095680;28;20090;-71
2022/10/10 08:07:34;;;;;;;;;;;;;;;;;;5095849;28;20075;-72
2022/10/10 08:10:01;;;;;;;21.75;12.00;;;;;;;;;;5094380;28;19920;-73
2022/10/10 08:12:27;;;;;;;22.55;12.13;;;;;;;;;;5095317;28;20044;-72
2022/10/10 08:14:53;;;;;;;18.65;12.13;;;;;;;;;;5095683;28;20067;-72
2022/10/10 08:17:20;;;;;;;21.52;12.27;;;;;;;;;;5095474;28;20403;-69
2022/10/10 08:19:46;;;;;;;21.67;12.32;;;;;;;;;;5095461;28;20467;-71
2022/10/10 08:22:12;;;;;;;20.10;12.70;;;;;;;;;;5095511;28;20040;-71
2022/10/10 08:24:39;;;;;;;23.08;13.73;;;;;;;;;;5093207;28;20556;-72
2022/10/10 08:27:05;;;;;;;19.70;12.15;;;;;;;;;;5095275;28;20083;-72
2022/10/10 08:29:32;;;;;;;20.77;12.85;;;;;;;;;;5095660;28;20044;-72
2022/10/10 08:31:58;;;;;;;21.73;12.90;;;;;;;;;;5094684;28;20041;-70
2022/10/10 08:34:24;;;;;;;26.52;16.67;;;;;;;;;;5095000;28;20063;-69
2022/10/10 08:36:50;;;;;;;22.77;13.05;;;;;;;;;;5094703;28;20080;-73
2022/10/10 08:39:17;;;;;;;22.30;12.48;;;;;;;;;;5094685;28;20082;-73
2022/10/10 08:41:49;;;;;;;20.88;12.85;;;;;;;;;;5094005;28;20055;-76
2022/10/10 08:44:24;;;;;;;19.98;12.50;;;;;;;;;;5094922;28;20059;-75
2022/10/10 08:46:50;;;;;;;21.15;11.98;;;;;;;;;;5093146;28;20055;-75
2022/10/10 08:49:26;;;;;;;19.20;12.48;;;;;;;;;;5094463;28;20578;-72
2022/10/10 08:51:57;;;;;;;19.50;11.63;;;;;;;;;;5094219;28;20048;-73
2022/10/10 08:54:25;;;;;;;18.95;12.13;;;;;;;;;;5093821;28;20051;-74
2022/10/10 08:56:54;;;;;;;22.40;12.13;;;;;;;;;;5093950;28;20047;-71
2022/10/10 08:59:22;;;;;;;18.63;11.60;;;;;;;;;;5092651;28;20056;-75
2022/10/10 09:01:51;;;;;;;21.73;12.13;;;;;;;;;;5093574;28;20054;-72
2022/10/10 09:04:17;;;;;;;19.85;11.68;;;;;;;;;;5093438;28;20399;-72
2022/10/10 09:06:43;;;;;;;;;;;;;;;;;;5094042;28;20143;-71
2022/10/10 09:09:12;;;;;;;19.17;12.32;;;;;;;;;;5093276;28;19963;-75
2022/10/10 09:11:41;;;;;;;22.55;11.82;;;;;;;;;;5094039;28;20036;-73
2022/10/10 09:14:16;;;;;;;22.48;12.25;;;;;;;;;;5093486;28;20164;-74
2022/10/10 09:16:55;;;;;;;21.40;12.30;;;;;;;;;;5093737;28;20083;-77
2022/10/10 09:19:50;;;;;;;19.20;12.23;;;;;;;;;;5093667;28;20056;-73
2022/10/10 09:22:18;;;;;;;22.38;12.48;;;;;;;;;;5076045;28;20098;-72
2022/10/10 09:24:47;;;;;;;18.92;12.63;;;;;;;;;;5093220;28;20105;-75
2022/10/10 09:27:19;;;;;;;24.25;15.40;;;;;;;;;;5093289;28;20067;-82
2022/10/10 09:30:02;;;;;;;22.15;12.15;;;;;;;;;;5093090;28;20093;-75
2022/10/10 09:32:54;;;;;;;20.55;12.48;;;;;;;;;;5092682;28;20139;-72
2022/10/10 09:35:20;;;;;;;21.92;11.93;;;;;;;;;;5062649;28;20055;-74
2022/10/10 09:37:49;;;;;;;21.92;11.80;;;;;;;;;;5093360;28;20440;-73
2022/10/10 09:40:21;;;;;;;20.58;12.50;;;;;;;;;;5093080;28;20150;-73
2022/10/10 09:42:47;;;;;;;25.20;12.70;;;;;;;;;;5093555;28;20040;-72
2022/10/10 09:45:18;;;;;;;22.98;12.90;;;;;;;;;;5092871;28;20086;-77
2022/10/10 09:47:44;;;;;;;19.52;12.27;;;;;;;;;;5092307;28;20488;-74
2022/10/10 09:50:14;;;;;;;19.05;12.38;;;;;;;;;;5091796;28;20070;-77
2022/10/10 09:52:41;;;;;;;23.08;12.93;;;;;;;;;;5092863;28;20047;-74
2022/10/10 09:55:25;;;;;;;22.10;12.50;;;;;;;;;;5092255;28;20083;-72
2022/10/10 09:57:53;;;;;;;21.00;13.02;;;;;;;;;;5093535;28;20252;-73
2022/10/10 10:00:19;;;;;;;20.67;12.48;;;;;;;;;;5092284;28;20198;-72
2022/10/10 10:03:03;;;;;;;21.98;12.43;;;;;;;;;;5091113;28;20123;-73
2022/10/10 10:05:29;;;;;;;19.52;12.02;;;;;;;;;;5092616;28;20040;-75
2022/10/10 10:07:57;;;;;;;21.60;12.82;;;;;;;;;;5074240;28;20054;-73
2022/10/10 10:10:25;;;;;;;24.67;12.55;;;;;;;;;;5093189;28;20052;-73
2022/10/10 10:12:51;;;;;;;22.10;12.18;;;;;;;;;;5092124;28;20506;-74
2022/10/10 10:15:17;;;;;;;;;;;;;;;;;;5093538;28;20051;-75
2022/10/10 10:17:44;;;;;;;18.33;12.52;;;;;;;;;;5092540;28;19920;-76
2022/10/10 10:20:28;;;;;;;23.60;12.90;;;;;;;;;;5093460;28;20208;-83
2022/10/10 10:22:54;;;;;;;22.95;13.05;;;;;;;;;;5093256;28;20044;-80
2022/10/10 10:25:30;;;;;;;20.52;12.00;;;;;;;;;;5075545;28;20051;-75
2022/10/10 10:28:14;;;;;;;20.65;12.63;;;;;;;;;;5092495;28;20069;-80
2022/10/10 10:30:41;;;;;;;23.00;12.30;;;;;;;;;;5092100;28;20044;-80
2022/10/10 10:33:14;;;;;;;19.90;12.23;;;;;;;;;;5093333;28;20056;-74
2022/10/10 10:35:52;;;;;;;27.80;13.30;;;;;;;;;;5093507;28;20055;-89
2022/10/10 10:38:37;;;;;;;21.63;12.25;;;;;;;;;;5092314;28;20050;-78
2022/10/10 10:41:12;;;;;;;21.10;12.48;;;;;;;;;;5090753;28;20059;-81
2022/10/10 10:43:55;;;;;;;21.40;12.07;;;;;;;;;;5092095;28;20055;-80
2022/10/10 10:46:34;;;;;;;18.20;11.63;;;;;;;;;;5091690;28;20067;-77
2022/10/10 10:49:06;;;;;;;20.75;11.70;;;;;;;;;;5092087;28;20092;-74
2022/10/10 10:51:32;;;;;;;21.80;10.90;;;;;;;;;;5092385;28;20133;-77
2022/10/10 10:53:59;;;;;;;20.50;11.95;;;;;;;;;;5092853;28;20044;-75
2022/10/10 10:56:44;;;;;;;21.40;11.85;;;;;;;;;;5074991;28;20059;-79
2022/10/10 10:59:10;;;;;;;20.40;11.48;;;;;;;;;;5091966;28;20040;-75
2022/10/10 11:01:40;;;;;;;19.15;11.45;;;;;;;;;;5092444;28;20096;-75
2022/10/10 11:04:19;;;;;;;23.25;11.13;;;;;;;;;;5091640;28;20044;-76
2022/10/10 11:06:56;;;;;;;20.83;10.93;;;;;;;;;;5093498;28;20479;-79
2022/10/10 11:09:28;;;;;;;23.90;11.38;;;;;;;;;;5096047;28;20483;-74
2022/10/10 11:11:57;;;;;;;19.58;11.30;;;;;;;;;;5095948;28;20372;-79
2022/10/10 11:14:33;;;;;;;20.10;11.10;;;;;;;;;;5096095;28;20110;-80
2022/10/10 11:17:14;;;;;;;19.10;11.10;;;;;;;;;;5096848;28;20048;-81
2022/10/10 11:19:46;;;;;;;20.15;11.43;;;;;;;;;;5096398;28;20377;-76
2022/10/10 11:22:17;;;;;;;36.63;22.10;;;;;;;;;;5096243;28;20051;-77
2022/10/10 11:24:43;;;;;;;24.40;11.65;;;;;;;;;;5095887;28;20472;-80
2022/10/10 11:27:32;;;;;;;19.17;11.65;;;;;;;;;;5095975;28;20055;-91
2022/10/10 11:30:04;;;;;;;23.50;11.65;;;;;;;;;;5095015;28;20472;-73
2022/10/10 11:32:33;;;;;;;24.23;12.18;;;;;;;;;;5095804;28;20056;-75
2022/10/10 11:35:25;;;;;;;23.70;11.63;;;;;;;;;;5096330;28;20048;-81
2022/10/10 11:37:55;;;;;;;25.92;12.35;;;;;;;;;;5065352;28;20079;-82
2022/10/10 11:40:40;;;;;;;20.17;12.35;;;;;;;;;;5096139;28;20055;-81
2022/10/10 11:43:12;;;;;;;26.55;16.08;;;;;;;;;;5096725;28;20048;-85
2022/10/10 11:45:44;;;;;;;39.10;27.25;;;;;;;;;;5096061;28;20044;-78
2022/10/10 11:48:18;;;;;;;27.60;13.70;;;;;;;;;;5096796;28;20040;-87
2022/10/10 11:50:44;;;;;;;21.80;13.15;;;;;;;;;;5096533;28;20048;-82
2022/10/10 11:53:10;;;;;;;;;;;;;;;;;;5096315;28;20050;-74
2022/10/10 11:55:39;;;;;;;24.00;13.63;;;;;;;;;;5095984;28;19971;-76
2022/10/10 11:58:05;;;;;;;31.70;14.65;;;;;;;;;;5095801;28;20510;-81
2022/10/10 12:00:43;;;;;;;22.90;13.52;;;;;;;;;;5095650;28;20084;-80
2022/10/10 12:03:10;;;;;;;25.52;13.73;;;;;;;;;;5094473;28;20052;-84
2022/10/10 12:05:38;;;;;;;28.73;14.30;;;;;;;;;;5095656;28;20047;-75
2022/10/10 12:08:04;;;;;;;23.95;14.20;;;;;;;;;;5094250;28;20044;-77
2022/10/10 12:10:32;;;;;;;26.17;14.27;;;;;;;;;;5095641;28;20055;-78
2022/10/10 12:13:03;;;;;;;24.25;14.75;;;;;;;;;;5095457;28;20130;-83
2022/10/10 12:15:31;;;;;;;25.13;14.05;;;;;;;;;;5095071;28;20044;-89
2022/10/10 12:17:58;;;;;;;26.60;14.10;;;;;;;;;;5094328;28;20055;-77
2022/10/10 12:20:27;;;;;;;25.40;15.10;;;;;;;;;;5078394;28;20426;-79
2022/10/10 12:23:06;;;;;;;27.50;15.25;;;;;;;;;;5077713;28;20051;-80
2022/10/10 12:25:41;;;;;;;23.17;15.65;;;;;;;;;;5077331;28;20036;-77
2022/10/10 12:28:13;;;;;;;30.00;16.60;;;;;;;;;;5094669;28;20051;-78
2022/10/10 12:30:54;;;;;;;27.67;16.05;;;;;;;;;;5095364;28;20399;-74
2022/10/10 12:33:21;;;;;;;23.83;16.30;;;;;;;;;;5095005;28;20063;-79
2022/10/10 12:35:47;;;;;;;25.55;16.00;;;;;;;;;;5094014;28;20483;-78
2022/10/10 12:38:15;;;;;;;30.02;16.75;;;;;;;;;;5094945;28;20126;-74
2022/10/10 12:40:53;;;;;;;28.92;17.00;;;;;;;;;;5094622;28;20459;-75
2022/10/10 12:43:21;;;;;;;28.90;16.85;;;;;;;;;;5094836;28;20048;-74
2022/10/10 12:46:06;;;;;;;28.02;17.40;;;;;;;;;;5093643;28;20078;-78
2022/10/10 12:48:33;;;;;;;28.85;18.05;;;;;;;;;;5094592;28;20059;-73
2022/10/10 12:51:00;;;;;;;30.20;18.45;;;;;;;;;;5094624;28;20048;-79
2022/10/10 12:53:28;;;;;;;26.83;18.23;;;;;;;;;;5094335;28;20126;-75
2022/10/10 12:55:55;;;;;;;34.42;19.98;;;;;;;;;;5093768;28;20039;-73
2022/10/10 12:58:23;;;;;;;34.10;20.65;;;;;;;;;;5093573;28;20062;-72
2022/10/10 13:00:49;;;;;;;35.08;20.60;;;;;;;;;;5094053;28;20073;-71
2022/10/10 13:03:15;;;;;;;33.65;21.08;;;;;;;;;;5093144;28;20044;-70
2022/10/10 13:05:42;;;;;;;32.03;20.60;;;;;;;;;;5093654;28;20055;-70
2022/10/10 13:08:13;;;;;;;37.03;23.30;;;;;;;;;;5094391;28;20051;-70
2022/10/10 13:10:39;;;;;;;35.38;23.45;;;;;;;;;;5094404;28;20071;-70
2022/10/10 13:13:19;;;;;;;39.75;23.15;;;;;;;;;;5094236;28;20043;-69
2022/10/10 13:15:52;;;;;;;35.80;23.67;;;;;;;;;;5094376;28;20130;-69
2022/10/10 13:18:33;;;;;;;36.92;24.25;;;;;;;;;;5094802;28;20109;-69
2022/10/10 13:21:00;;;;;;;35.28;23.13;;;;;;;;;;5094284;28;20106;-69
2022/10/10 13:23:26;;;;;;;;;;;;;;;;;;5093912;28;20087;-70
2022/10/10 13:25:52;;;;;;;41.63;25.25;;;;;;;;;;5094006;28;19924;-69
2022/10/10 13:28:19;;;;;;;42.67;25.73;;;;;;;;;;5093847;28;20126;-73
2022/10/10 13:30:46;;;;;;;40.10;25.23;;;;;;;;;;5093564;28;20051;-70
2022/10/10 13:33:12;;;;;;;;;;;;;;;;;;5092559;28;20052;-70
2022/10/10 13:35:38;;;;;;;46.83;27.90;;;;;;;;;;5094454;28;19946;-69
2022/10/10 13:38:05;;;;;;;48.80;30.58;;;;;;;;;;5094011;28;20051;-69
2022/10/10 13:40:31;;;;;;;35.88;24.88;;;;;;;;;;5093518;28;20046;-72
2022/10/10 13:42:57;;;;;;;25.00;15.55;;;;;;;;;;5092192;28;20040;-73
2022/10/10 13:45:44;;;;;;;16.83;8.00;;;;;;;;;;5093425;28;20054;-74
2022/10/10 13:48:26;;;;;;;12.70;4.85;;;;;;;;;;5091881;28;20131;-74
2022/10/10 13:51:00;;;;;;;15.07;3.50;;;;;;;;;;5093018;28;20519;-84
2022/10/10 13:53:26;;;;;;;13.30;3.35;;;;;;;;;;5092259;28;20445;-71
2022/10/10 13:56:01;;;;;;;14.75;3.20;;;;;;;;;;5092170;28;20103;-72
2022/10/10 13:58:32;;;;;;;18.70;3.90;;;;;;;;;;5092670;28;20085;-76
2022/10/10 14:01:02;;;;;;;16.25;2.92;;;;;;;;;;5092142;28;20047;-77
2022/10/10 14:03:29;;;;;;;18.83;3.72;;;;;;;;;;5092502;28;20384;-78
2022/10/10 14:05:55;;;;;;;20.10;3.47;;;;;;;;;;5092316;28;20492;-77
2022/10/10 14:08:25;;;;;;;18.88;3.58;;;;;;;;;;5092182;28;20090;-78
2022/10/10 14:10:55;;;;;;;15.77;3.20;;;;;;;;;;5092466;28;20058;-76
2022/10/10 14:13:21;;;;;;;12.05;3.22;;;;;;;;;;5092055;28;20050;-76
2022/10/10 14:15:47;;;;;;;17.85;3.78;;;;;;;;;;5092627;28;20059;-73
2022/10/10 14:18:18;;;;;;;15.40;3.65;;;;;;;;;;5092977;28;20048;-80
2022/10/10 14:20:44;;;;;;;16.55;3.85;;;;;;;;;;5092752;28;20040;-80
2022/10/10 14:23:11;;;;;;;16.92;3.88;;;;;;;;;;5093593;28;20036;-78
2022/10/10 14:25:37;;;;;;;;;;;;;;;;;;5092967;28;20392;-79
2022/10/10 14:28:03;;;;;;;20.40;3.80;;;;;;;;;;5092745;28;19931;-79
2022/10/10 14:30:29;;;;;;;20.42;3.65;;;;;;;;;;5093815;28;20047;-79
2022/10/10 14:32:55;;;;;;;19.65;3.80;;;;;;;;;;5092556;28;20066;-78
2022/10/10 14:35:21;;;;;;;19.33;4.03;;;;;;;;;;5091315;28;20456;-79
2022/10/10 14:37:47;;;;;;;21.23;4.50;;;;;;;;;;5091308;28;20048;-82
2022/10/10 14:40:21;;;;;;;21.00;4.20;;;;;;;;;;5092542;28;20408;-74
2022/10/10 14:42:47;;;;;;;19.80;3.85;;;;;;;;;;5097097;28;20044;-80
2022/10/10 14:45:13;;;;;;;;;;;;;;;;;;5096208;28;20043;-75